Time;durP1;ratioP1;P1;durP2;ratioP2;P2;SDS_P1;SDS_P2;PMS_P1;PMS_P2;Temp;Humidity;BMP_temperature;BMP_pressure;BME280_temperature;BME280_humidity;BME280_pressure;Samples;Min_cycle;Max_cycle;Signal;HPM_P1;HPM_P2
2024/01/06 00:01:48;;;;;;;20.77;16.17;;;5.90;99.90;;;;;;5095887;28;20181;-62
2024/01/06 00:04:14;;;;;;;22.77;17.10;;;5.80;99.90;;;;;;5096219;28;20189;-62
2024/01/06 00:06:39;;;;;;;21.83;16.23;;;5.90;99.90;;;;;;5095481;28;20295;-62
2024/01/06 00:09:05;;;;;;;22.03;16.13;;;5.80;99.90;;;;;;5096542;28;20192;-62
2024/01/06 00:11:31;;;;;;;24.40;17.93;;;5.80;99.90;;;;;;5096046;28;20208;-62
2024/01/06 00:13:56;;;;;;;26.53;19.40;;;5.80;99.90;;;;;;5096126;28;20189;-62
2024/01/06 00:16:22;;;;;;;26.50;18.07;;;5.80;99.90;;;;;;5095410;28;20595;-62
2024/01/06 00:18:48;;;;;;;27.53;18.63;;;5.80;99.90;;;;;;5096005;28;20630;-62
2024/01/06 00:21:14;;;;;;;26.50;18.47;;;5.80;99.90;;;;;;5095702;28;20173;-62
2024/01/06 00:23:40;;;;;;;28.27;19.67;;;5.80;99.90;;;;;;5095190;28;20238;-62
2024/01/06 00:26:06;;;;;;;27.60;18.93;;;5.80;99.90;;;;;;5095505;28;20256;-61
2024/01/06 00:28:32;;;;;;;26.80;17.93;;;5.80;99.90;;;;;;5095422;28;20281;-63
2024/01/06 00:30:58;;;;;;;26.50;18.10;;;5.80;99.90;;;;;;5095065;28;20613;-60
2024/01/06 00:33:24;;;;;;;27.40;20.30;;;5.80;99.90;;;;;;5096073;28;20205;-62
2024/01/06 00:35:49;;;;;;;28.10;19.57;;;5.80;99.90;;;;;;5095409;28;20193;-62
2024/01/06 00:38:15;;;;;;;28.53;19.80;;;5.90;99.90;;;;;;5095599;28;20205;-62
2024/01/06 00:40:41;;;;;;;28.87;20.03;;;5.90;99.90;;;;;;5095289;28;20181;-62
2024/01/06 00:43:07;;;;;;;29.47;21.57;;;5.80;99.90;;;;;;5095726;28;20172;-62
2024/01/06 00:45:32;;;;;;;27.87;19.80;;;5.80;99.90;;;;;;5095659;28;20642;-62
2024/01/06 00:47:58;;;;;;;28.67;20.70;;;5.90;99.90;;;;;;5094766;28;20353;-61
2024/01/06 00:50:24;;;;;;;30.73;19.23;;;5.90;99.90;;;;;;5095596;28;20193;-62
2024/01/06 00:52:52;;;;;;;27.73;19.43;;;5.90;99.90;;;;;;5095188;28;20257;-62
2024/01/06 00:55:21;;;;;;;32.27;20.30;;;5.90;99.90;;;;;;5095467;28;20193;-62
2024/01/06 00:57:47;;;;;;;27.83;19.77;;;5.90;99.90;;;;;;5095174;28;20600;-62
2024/01/06 01:00:14;;;;;;;26.67;19.20;;;5.90;99.90;;;;;;5095200;28;20181;-62
2024/01/06 01:02:40;;;;;;;29.23;19.27;;;5.90;99.90;;;;;;5094753;28;20184;-62
2024/01/06 01:05:07;;;;;;;25.80;19.30;;;5.90;99.90;;;;;;5094518;28;20271;-62
2024/01/06 01:07:33;;;;;;;29.80;19.60;;;5.90;99.90;;;;;;5095370;28;20197;-62
2024/01/06 01:09:59;;;;;;;32.63;19.77;;;5.90;99.90;;;;;;5094577;28;20260;-64
2024/01/06 01:12:25;;;;;;;28.77;20.37;;;5.90;99.90;;;;;;5094527;28;20296;-62
2024/01/06 01:14:52;;;;;;;31.73;19.97;;;5.90;99.90;;;;;;5095121;28;20187;-62
2024/01/06 01:17:17;;;;;;;32.70;22.10;;;5.90;99.90;;;;;;5094369;28;20201;-62
2024/01/06 01:19:44;;;;;;;26.43;18.47;;;5.80;99.90;;;;;;5094543;28;20185;-62
2024/01/06 01:22:10;;;;;;;30.93;19.93;;;5.80;99.90;;;;;;5094262;28;20193;-61
2024/01/06 01:24:35;;;;;;;30.80;20.13;;;5.80;99.90;;;;;;5095256;28;20192;-62
2024/01/06 01:27:01;;;;;;;32.43;21.27;;;5.80;99.90;;;;;;5094518;28;20291;-62
2024/01/06 01:29:27;;;;;;;31.33;19.67;;;5.80;99.90;;;;;;5094401;28;20177;-62
2024/01/06 01:31:53;;;;;;;33.20;21.23;;;5.80;99.90;;;;;;5094315;28;20716;-62
2024/01/06 01:34:19;;;;;;;31.43;20.50;;;5.80;99.90;;;;;;5093466;28;20173;-62
2024/01/06 01:36:45;;;;;;;28.93;18.77;;;5.80;99.90;;;;;;5094485;28;20193;-62
2024/01/06 01:39:11;;;;;;;29.07;19.40;;;5.80;99.90;;;;;;5094643;28;20192;-62
2024/01/06 01:41:36;;;;;;;32.33;21.40;;;5.80;99.90;;;;;;5094416;28;20188;-62
2024/01/06 01:44:03;;;;;;;32.57;22.17;;;5.80;99.90;;;;;;5094300;28;20181;-61
2024/01/06 01:46:29;;;;;;;34.23;22.33;;;5.80;99.90;;;;;;5094324;28;20204;-62
2024/01/06 01:48:57;;;;;;;32.00;21.30;;;5.80;99.90;;;;;;5094215;28;20264;-61
2024/01/06 01:51:26;;;;;;;32.93;20.37;;;5.80;99.90;;;;;;5093517;28;20176;-62
2024/01/06 01:53:52;;;;;;;35.13;21.87;;;5.80;99.90;;;;;;5094157;28;20652;-62
2024/01/06 01:56:19;;;;;;;33.87;22.13;;;5.70;99.90;;;;;;5094087;28;20224;-61
2024/01/06 01:58:46;;;;;;;33.50;21.43;;;5.80;99.90;;;;;;5093868;28;20250;-61
2024/01/06 02:01:12;;;;;;;44.23;23.87;;;5.70;99.90;;;;;;5093918;28;20271;-62
2024/01/06 02:03:40;;;;;;;37.60;22.37;;;5.70;99.90;;;;;;5093400;28;20216;-61
2024/01/06 02:06:06;;;;;;;34.33;21.47;;;5.70;99.90;;;;;;5094431;28;20178;-62
2024/01/06 02:08:32;;;;;;;38.67;22.20;;;5.70;99.90;;;;;;5076004;28;20230;-62
2024/01/06 02:10:58;;;;;;;34.40;21.77;;;5.70;99.90;;;;;;5094184;28;20185;-62
2024/01/06 02:13:24;;;;;;;37.17;22.53;;;5.70;99.90;;;;;;5093583;28;20205;-62
2024/01/06 02:15:50;;;;;;;38.97;22.27;;;5.70;99.90;;;;;;5093727;28;20288;-61
2024/01/06 02:18:16;;;;;;;40.87;23.47;;;5.70;99.90;;;;;;5093658;28;20291;-62
2024/01/06 02:20:46;;;;;;;38.43;23.47;;;5.70;99.90;;;;;;5093721;28;20196;-62
2024/01/06 02:23:12;;;;;;;36.80;22.67;;;5.80;99.90;;;;;;5094040;28;20181;-62
2024/01/06 02:25:37;;;;;;;39.33;21.83;;;5.80;99.90;;;;;;5093979;28;20185;-62
2024/01/06 02:28:03;;;;;;;42.87;23.53;;;5.80;99.90;;;;;;5093217;28;20237;-62
2024/01/06 02:30:29;;;;;;;36.10;22.43;;;5.80;99.90;;;;;;5094040;28;20181;-61
2024/01/06 02:32:55;;;;;;;39.03;22.33;;;5.80;99.90;;;;;;5093427;28;20270;-63
2024/01/06 02:35:21;;;;;;;40.53;23.83;;;5.80;99.90;;;;;;5093177;28;20531;-61
2024/01/06 02:37:46;;;;;;;44.60;24.37;;;5.80;99.90;;;;;;5093594;28;20205;-62
2024/01/06 02:40:13;;;;;;;39.40;23.17;;;5.70;99.90;;;;;;5093879;28;20619;-61
2024/01/06 02:42:39;;;;;;;42.77;24.07;;;5.70;99.90;;;;;;5093770;28;20181;-62
2024/01/06 02:45:06;;;;;;;39.70;24.37;;;5.80;99.90;;;;;;5093727;28;20567;-62
2024/01/06 02:47:32;;;;;;;42.23;24.37;;;5.80;99.90;;;;;;5097358;28;20196;-62
2024/01/06 02:49:57;;;;;;;45.97;25.40;;;5.80;99.90;;;;;;5097728;28;20189;-62
2024/01/06 02:52:23;;;;;;;44.67;25.40;;;5.80;99.90;;;;;;5097969;28;20205;-62
2024/01/06 02:54:49;;;;;;;42.83;23.73;;;5.70;99.90;;;;;;5097560;28;20551;-62
2024/01/06 02:57:15;;;;;;;44.13;24.50;;;5.80;99.90;;;;;;5097380;28;20236;-61
2024/01/06 02:59:41;;;;;;;43.90;25.50;;;5.80;99.90;;;;;;5097203;28;20181;-62
2024/01/06 03:02:07;;;;;;;42.93;24.83;;;5.70;99.90;;;;;;5096663;28;20201;-62
2024/01/06 03:04:32;;;;;;;42.87;23.83;;;5.70;99.90;;;;;;5097547;28;20189;-62
2024/01/06 03:06:58;;;;;;;38.33;22.77;;;5.70;99.90;;;;;;5097406;28;20314;-62
2024/01/06 03:09:24;;;;;;;39.47;23.43;;;5.70;99.90;;;;;;5097254;28;20189;-62
2024/01/06 03:11:50;;;;;;;39.67;21.57;;;5.70;99.90;;;;;;5097297;28;20216;-62
2024/01/06 03:14:15;;;;;;;36.13;22.53;;;5.70;99.90;;;;;;5096613;28;20208;-62
2024/01/06 03:16:41;;;;;;;29.97;18.53;;;5.70;99.90;;;;;;5097460;28;20197;-62
2024/01/06 03:19:07;;;;;;;30.17;18.07;;;5.60;99.90;;;;;;5097627;28;20172;-62
2024/01/06 03:21:33;;;;;;;27.13;17.73;;;5.60;99.90;;;;;;5097018;28;20193;-61
2024/01/06 03:23:58;;;;;;;21.97;15.27;;;5.50;99.90;;;;;;5097420;28;20219;-62
2024/01/06 03:26:24;;;;;;;21.83;14.50;;;5.50;99.90;;;;;;5096250;28;20239;-62
2024/01/06 03:28:50;;;;;;;21.57;13.83;;;5.40;99.90;;;;;;5097079;28;20197;-62
2024/01/06 03:31:16;;;;;;;22.63;13.33;;;5.40;99.90;;;;;;5097105;28;20325;-62
2024/01/06 03:33:43;;;;;;;21.63;13.43;;;5.50;99.90;;;;;;5096637;28;20188;-62
2024/01/06 03:36:09;;;;;;;21.33;13.50;;;5.40;99.90;;;;;;5096710;28;20181;-62
2024/01/06 03:38:35;;;;;;;23.40;14.57;;;5.40;99.90;;;;;;5096803;28;20173;-62
2024/01/06 03:41:01;;;;;;;21.10;13.17;;;5.30;99.90;;;;;;5097088;28;20188;-62
2024/01/06 03:43:27;;;;;;;20.20;13.00;;;5.30;99.90;;;;;;5095955;28;20223;-62
2024/01/06 03:45:52;;;;;;;19.30;12.07;;;5.30;99.90;;;;;;5096946;28;20177;-61
2024/01/06 03:48:18;;;;;;;19.87;13.00;;;5.30;99.90;;;;;;5096168;28;20181;-61
2024/01/06 03:50:44;;;;;;;18.97;13.10;;;5.30;99.90;;;;;;5096290;28;20712;-62
2024/01/06 03:53:10;;;;;;;22.20;14.10;;;5.40;99.90;;;;;;5096169;28;20252;-62
2024/01/06 03:55:36;;;;;;;20.77;13.50;;;5.40;99.90;;;;;;5096463;28;20201;-62
2024/01/06 03:58:02;;;;;;;21.70;13.87;;;5.40;99.90;;;;;;5095116;28;20216;-62
2024/01/06 04:00:27;;;;;;;23.07;15.30;;;5.40;99.90;;;;;;5095919;28;20272;-62
2024/01/06 04:02:55;;;;;;;20.50;14.40;;;5.40;99.90;;;;;;5096227;28;20693;-62
2024/01/06 04:05:20;;;;;;;22.00;14.57;;;5.40;99.90;;;;;;5096043;28;20181;-61
2024/01/06 04:07:46;;;;;;;23.50;14.97;;;5.40;99.90;;;;;;5095995;28;20200;-62
2024/01/06 04:10:12;;;;;;;26.00;15.47;;;5.40;99.90;;;;;;5096506;28;20173;-62
2024/01/06 04:12:37;;;;;;;27.50;17.00;;;5.50;99.90;;;;;;5095820;28;20217;-62
2024/01/06 04:15:04;;;;;;;28.20;17.57;;;5.50;99.90;;;;;;5096087;28;20181;-62
2024/01/06 04:17:30;;;;;;;26.20;16.93;;;5.50;99.90;;;;;;5095817;28;20259;-62
2024/01/06 04:19:56;;;;;;;29.37;17.97;;;5.60;99.90;;;;;;5095745;28;20638;-62
2024/01/06 04:22:22;;;;;;;30.90;19.40;;;5.60;99.90;;;;;;5096367;28;20200;-62
2024/01/06 04:24:48;;;;;;;29.93;18.07;;;5.60;99.90;;;;;;5095393;28;20177;-62
2024/01/06 04:27:14;;;;;;;38.00;20.70;;;5.70;99.90;;;;;;5095821;28;20201;-62
2024/01/06 04:29:39;;;;;;;40.23;21.43;;;5.70;99.90;;;;;;5095872;28;20646;-61
2024/01/06 04:32:07;;;;;;;41.03;21.73;;;5.60;99.90;;;;;;5094508;28;20209;-62
2024/01/06 04:34:33;;;;;;;43.33;22.03;;;5.60;99.90;;;;;;5095767;28;20284;-62
2024/01/06 04:36:58;;;;;;;46.43;23.40;;;5.50;99.90;;;;;;5095619;28;20311;-62
2024/01/06 04:39:24;;;;;;;44.17;22.43;;;5.50;99.90;;;;;;5095315;28;20216;-62
2024/01/06 04:41:50;;;;;;;47.37;23.00;;;5.50;99.90;;;;;;5095428;28;20193;-62
2024/01/06 04:44:16;;;;;;;44.47;22.60;;;5.40;99.90;;;;;;5095258;28;20653;-62
2024/01/06 04:46:42;;;;;;;39.07;22.57;;;5.50;99.90;;;;;;5095347;28;20665;-62
2024/01/06 04:49:07;;;;;;;41.20;22.00;;;5.40;99.90;;;;;;5094552;28;20209;-62
2024/01/06 04:51:33;;;;;;;39.80;21.73;;;5.40;99.90;;;;;;5095844;28;20264;-62
2024/01/06 04:53:59;;;;;;;35.77;19.97;;;5.40;99.90;;;;;;5095111;28;20189;-62
2024/01/06 04:56:25;;;;;;;39.97;22.67;;;5.30;99.90;;;;;;5095103;28;20270;-62
2024/01/06 04:58:50;;;;;;;41.10;20.60;;;5.30;99.90;;;;;;5095624;28;20252;-62
2024/01/06 05:01:16;;;;;;;36.87;21.03;;;5.30;99.90;;;;;;5094677;28;20213;-62
2024/01/06 05:03:42;;;;;;;40.23;21.20;;;5.20;99.90;;;;;;5094812;28;20173;-62
2024/01/06 05:06:08;;;;;;;43.73;22.23;;;5.20;99.90;;;;;;5094776;28;20182;-62
2024/01/06 05:08:33;;;;;;;39.83;21.37;;;5.20;99.90;;;;;;5094668;28;20177;-62
2024/01/06 05:11:00;;;;;;;40.40;19.87;;;5.20;99.90;;;;;;5094310;28;20315;-62
2024/01/06 05:13:25;;;;;;;43.77;21.23;;;5.20;99.90;;;;;;5094858;28;20215;-62
2024/01/06 05:15:51;;;;;;;42.37;22.20;;;5.20;99.90;;;;;;5094869;28;20174;-62
2024/01/06 05:18:17;;;;;;;43.73;22.30;;;5.20;99.90;;;;;;5094569;28;20193;-62
2024/01/06 05:20:43;;;;;;;46.00;22.30;;;5.20;99.90;;;;;;5094564;28;20219;-62
2024/01/06 05:23:09;;;;;;;38.90;20.17;;;5.10;99.90;;;;;;5094625;28;20181;-62
2024/01/06 05:25:34;;;;;;;43.67;20.10;;;5.10;99.90;;;;;;5094522;28;20231;-62
2024/01/06 05:28:00;;;;;;;38.90;21.10;;;5.10;99.90;;;;;;5094491;28;20239;-62
2024/01/06 05:30:26;;;;;;;35.90;20.10;;;5.10;99.90;;;;;;5094545;28;20177;-62
2024/01/06 05:32:52;;;;;;;38.40;20.67;;;5.10;99.90;;;;;;5094408;28;20207;-62
2024/01/06 05:35:18;;;;;;;42.27;22.30;;;5.10;99.90;;;;;;5094255;28;20216;-62
2024/01/06 05:37:43;;;;;;;40.90;21.87;;;5.10;99.90;;;;;;5094237;28;20197;-62
2024/01/06 05:40:09;;;;;;;46.83;22.90;;;5.00;99.90;;;;;;5094347;28;20185;-63
2024/01/06 05:42:35;;;;;;;41.67;20.97;;;5.10;99.90;;;;;;5094828;28;20225;-62
2024/01/06 05:45:01;;;;;;;45.63;23.37;;;5.00;99.90;;;;;;5094379;28;20169;-62
2024/01/06 05:47:26;;;;;;;48.77;24.07;;;5.00;99.90;;;;;;5093689;28;20374;-62
2024/01/06 05:49:52;;;;;;;43.47;22.73;;;4.90;99.90;;;;;;5093784;28;20177;-62
2024/01/06 05:52:18;;;;;;;47.10;23.97;;;4.90;99.90;;;;;;5094070;28;20212;-61
2024/01/06 05:54:44;;;;;;;47.90;24.43;;;5.00;99.90;;;;;;5094289;28;20203;-62
2024/01/06 05:57:10;;;;;;;47.60;23.23;;;5.00;99.90;;;;;;5093914;28;20221;-62
2024/01/06 05:59:36;;;;;;;40.10;21.20;;;5.00;99.90;;;;;;5094104;28;20222;-62
2024/01/06 06:02:01;;;;;;;44.70;22.90;;;4.90;99.90;;;;;;5093822;28;20191;-60
2024/01/06 06:04:27;;;;;;;44.87;22.27;;;5.00;99.90;;;;;;5094083;28;20598;-61
2024/01/06 06:06:53;;;;;;;45.97;23.17;;;5.00;99.90;;;;;;5094030;28;20279;-62
2024/01/06 06:09:20;;;;;;;39.23;21.27;;;5.00;99.90;;;;;;5094266;28;20257;-62
2024/01/06 06:11:46;;;;;;;37.53;21.37;;;5.00;99.90;;;;;;5092413;28;20254;-62
2024/01/06 06:14:12;;;;;;;40.27;20.50;;;5.00;99.90;;;;;;5093869;28;20185;-62
2024/01/06 06:16:38;;;;;;;39.27;20.33;;;5.00;99.90;;;;;;5094168;28;20216;-62
2024/01/06 06:19:04;;;;;;;43.33;21.20;;;5.00;99.90;;;;;;5093477;28;20260;-61
2024/01/06 06:21:30;;;;;;;42.57;20.97;;;5.00;99.90;;;;;;5099369;28;20177;-62
2024/01/06 06:23:56;;;;;;;41.93;21.17;;;5.00;99.90;;;;;;5099366;28;20546;-62
2024/01/06 06:26:22;;;;;;;40.47;21.50;;;4.90;99.90;;;;;;5100571;28;20201;-62
2024/01/06 06:28:47;;;;;;;39.00;21.30;;;4.90;99.90;;;;;;5100606;28;20181;-62
2024/01/06 06:31:13;;;;;;;41.93;21.73;;;4.80;99.90;;;;;;5100742;28;20188;-62
2024/01/06 06:33:39;;;;;;;48.97;22.20;;;4.80;99.90;;;;;;5100039;28;20553;-62
2024/01/06 06:36:06;;;;;;;45.87;22.67;;;4.90;99.90;;;;;;5100478;28;20181;-62
2024/01/06 06:38:31;;;;;;;41.53;20.40;;;4.80;99.90;;;;;;5100946;28;20636;-62
2024/01/06 06:40:57;;;;;;;48.00;21.87;;;4.80;99.90;;;;;;5100151;28;20209;-62
2024/01/06 06:43:23;;;;;;;40.00;21.07;;;4.80;99.90;;;;;;5100218;28;20184;-63
2024/01/06 06:45:49;;;;;;;44.20;22.97;;;4.80;99.90;;;;;;5099929;28;20207;-62
2024/01/06 06:48:14;;;;;;;37.13;21.07;;;4.80;99.90;;;;;;5099966;28;20209;-62
2024/01/06 06:50:41;;;;;;;38.57;19.90;;;4.70;99.90;;;;;;5100431;28;20252;-63
2024/01/06 06:53:07;;;;;;;38.23;20.13;;;4.60;99.90;;;;;;5100438;28;20311;-63
2024/01/06 06:55:33;;;;;;;36.43;18.57;;;4.60;99.90;;;;;;5100515;28;20169;-62
2024/01/06 06:57:59;;;;;;;40.90;19.87;;;4.60;99.90;;;;;;5100033;28;20254;-62
2024/01/06 07:00:25;;;;;;;39.33;20.07;;;4.70;99.90;;;;;;5100671;28;20183;-62
2024/01/06 07:02:51;;;;;;;38.60;20.13;;;4.70;99.90;;;;;;5099687;28;20177;-62
2024/01/06 07:05:17;;;;;;;41.53;22.20;;;4.70;99.90;;;;;;5100711;28;20189;-63
2024/01/06 07:07:46;;;;;;;40.23;22.57;;;4.70;99.90;;;;;;5099802;28;20200;-62
2024/01/06 07:10:13;;;;;;;42.33;21.60;;;4.70;99.90;;;;;;5099317;28;20189;-62
2024/01/06 07:12:39;;;;;;;45.83;23.73;;;4.70;99.90;;;;;;5099630;28;20203;-62
2024/01/06 07:15:05;;;;;;;42.97;20.77;;;4.70;99.90;;;;;;5099916;28;20162;-62
2024/01/06 07:17:31;;;;;;;39.70;19.87;;;4.70;99.90;;;;;;5099515;28;20203;-62
2024/01/06 07:19:56;;;;;;;41.50;20.83;;;4.70;99.90;;;;;;5099632;28;20248;-62
2024/01/06 07:22:22;;;;;;;36.83;18.73;;;4.70;99.90;;;;;;5099836;28;20709;-63
2024/01/06 07:24:48;;;;;;;35.13;19.53;;;4.80;99.90;;;;;;5099692;28;20184;-62
2024/01/06 07:27:14;;;;;;;38.00;19.57;;;4.80;99.90;;;;;;5098825;28;20258;-62
2024/01/06 07:29:40;;;;;;;38.70;20.13;;;4.80;99.90;;;;;;5100025;28;20200;-62
2024/01/06 07:32:06;;;;;;;35.47;18.40;;;4.80;99.90;;;;;;5098066;28;20197;-62
2024/01/06 07:34:32;;;;;;;38.90;18.93;;;4.80;99.90;;;;;;5096215;28;20180;-62
2024/01/06 07:36:58;;;;;;;36.40;19.47;;;4.80;99.90;;;;;;5096658;28;20276;-62
2024/01/06 07:39:24;;;;;;;29.30;17.33;;;4.80;99.90;;;;;;5096464;28;20595;-62
2024/01/06 07:41:51;;;;;;;33.77;18.80;;;4.70;99.90;;;;;;5096800;28;20189;-62
2024/01/06 07:44:22;;;;;;;33.00;18.87;;;4.70;99.90;;;;;;5096128;28;20193;-61
2024/01/06 07:46:48;;;;;;;32.27;17.87;;;4.60;99.90;;;;;;5096174;28;20728;-62
2024/01/06 07:49:15;;;;;;;38.60;19.40;;;4.60;99.90;;;;;;5096093;28;20177;-62
2024/01/06 07:51:41;;;;;;;30.73;17.77;;;4.60;99.90;;;;;;5095947;28;20200;-62
2024/01/06 07:54:08;;;;;;;32.17;17.90;;;4.60;99.90;;;;;;5096631;28;20539;-62
2024/01/06 07:56:34;;;;;;;38.07;19.37;;;4.60;99.90;;;;;;5096075;28;20311;-62
2024/01/06 07:59:01;;;;;;;32.43;18.33;;;4.60;99.90;;;;;;5096617;28;20173;-62
2024/01/06 08:01:27;;;;;;;30.87;19.03;;;4.60;99.90;;;;;;5096259;28;20590;-61
2024/01/06 08:03:53;;;;;;;33.27;18.00;;;4.60;99.90;;;;;;5095799;28;20208;-62
2024/01/06 08:06:19;;;;;;;37.63;19.43;;;4.60;99.90;;;;;;5096091;28;20251;-62
2024/01/06 08:08:45;;;;;;;38.80;20.47;;;4.60;99.90;;;;;;5095467;28;20176;-62
2024/01/06 08:11:11;;;;;;;37.07;21.40;;;4.50;99.90;;;;;;5095890;28;20170;-62
2024/01/06 08:13:37;;;;;;;43.17;23.10;;;4.50;99.90;;;;;;5095769;28;20204;-62
2024/01/06 08:16:04;;;;;;;38.17;21.63;;;4.50;99.90;;;;;;5095678;28;20188;-62
2024/01/06 08:18:30;;;;;;;37.17;20.77;;;4.40;99.90;;;;;;5095231;28;20181;-62
2024/01/06 08:20:56;;;;;;;35.40;19.47;;;4.40;99.90;;;;;;5095822;28;20185;-62
2024/01/06 08:23:22;;;;;;;38.30;21.33;;;4.40;99.90;;;;;;5095667;28;20204;-62
2024/01/06 08:25:48;;;;;;;41.97;23.37;;;4.40;99.90;;;;;;5095868;28;20189;-62
2024/01/06 08:28:18;;;;;;;39.33;21.03;;;4.40;99.90;;;;;;5095233;28;20709;-62
2024/01/06 08:30:44;;;;;;;38.60;21.27;;;4.40;99.90;;;;;;5095829;28;20173;-61
2024/01/06 08:33:10;;;;;;;42.17;22.87;;;4.40;99.90;;;;;;5094980;28;20205;-61
2024/01/06 08:35:40;;;;;;;46.20;22.93;;;4.40;99.90;;;;;;5095279;28;20268;-62
2024/01/06 08:38:07;;;;;;;40.47;22.17;;;4.40;99.90;;;;;;5095591;28;20205;-61
2024/01/06 08:40:33;;;;;;;40.43;21.37;;;4.40;99.90;;;;;;5095460;28;20177;-61
2024/01/06 08:42:59;;;;;;;43.97;22.57;;;4.40;99.90;;;;;;5094712;28;20218;-61
2024/01/06 08:45:24;;;;;;;36.00;21.13;;;4.40;99.90;;;;;;5095360;28;20185;-62
2024/01/06 08:47:50;;;;;;;36.70;21.13;;;4.40;99.90;;;;;;5095026;28;20208;-62
2024/01/06 08:50:16;;;;;;;40.40;21.43;;;4.40;99.90;;;;;;5095534;28;20637;-62
2024/01/06 08:52:42;;;;;;;37.17;20.60;;;4.40;99.90;;;;;;5095554;28;20213;-62
2024/01/06 08:55:08;;;;;;;40.60;20.30;;;4.40;99.90;;;;;;5095680;28;20177;-62
2024/01/06 08:57:33;;;;;;;43.50;21.40;;;4.40;99.90;;;;;;5094881;28;20224;-63
2024/01/06 08:59:59;;;;;;;42.23;21.50;;;4.40;99.90;;;;;;5094831;28;20181;-63
2024/01/06 09:02:25;;;;;;;43.50;22.90;;;4.40;99.90;;;;;;5095581;28;20254;-62
2024/01/06 09:04:51;;;;;;;46.37;24.67;;;4.40;99.90;;;;;;5094838;28;20212;-61
2024/01/06 09:07:17;;;;;;;40.13;22.87;;;4.30;99.90;;;;;;5094104;28;20244;-62
2024/01/06 09:09:44;;;;;;;40.73;21.17;;;4.30;99.90;;;;;;5094874;28;20231;-62
2024/01/06 09:12:09;;;;;;;42.10;21.67;;;4.30;99.90;;;;;;5094528;28;20579;-61
2024/01/06 09:14:35;;;;;;;52.03;24.10;;;4.30;99.90;;;;;;5094374;28;20171;-61
2024/01/06 09:17:01;;;;;;;50.37;24.50;;;4.30;99.90;;;;;;5094445;28;20673;-63
2024/01/06 09:19:28;;;;;;;53.83;26.07;;;4.20;99.90;;;;;;5094441;28;20708;-61
2024/01/06 09:21:54;;;;;;;51.07;26.53;;;4.20;99.90;;;;;;5094409;28;20238;-61
2024/01/06 09:24:20;;;;;;;58.07;26.93;;;4.20;99.90;;;;;;5086127;28;20188;-62
2024/01/06 09:26:46;;;;;;;56.20;26.40;;;4.20;99.90;;;;;;5094515;28;20213;-62
2024/01/06 09:29:12;;;;;;;50.37;25.10;;;4.20;99.90;;;;;;5094818;28;20184;-62
2024/01/06 09:31:38;;;;;;;50.27;25.27;;;4.20;99.90;;;;;;5094734;28;20197;-61
2024/01/06 09:34:04;;;;;;;49.53;23.37;;;4.10;99.90;;;;;;5094293;28;20184;-61
2024/01/06 09:36:32;;;;;;;41.17;22.30;;;4.10;99.90;;;;;;5094486;28;20652;-61
2024/01/06 09:38:58;;;;;;;47.10;22.80;;;4.00;99.90;;;;;;5094739;28;20248;-61
2024/01/06 09:41:24;;;;;;;46.27;23.57;;;4.10;99.90;;;;;;5094532;28;20589;-61
2024/01/06 09:43:50;;;;;;;42.47;24.53;;;4.10;99.90;;;;;;5094563;28;20634;-61
2024/01/06 09:46:26;;;;;;;44.97;23.43;;;4.10;99.90;;;;;;5094432;28;20258;-61
2024/01/06 09:48:53;;;;;;;41.23;21.77;;;4.10;99.90;;;;;;5093741;28;20184;-61
2024/01/06 09:51:20;;;;;;;40.60;21.10;;;4.10;99.90;;;;;;5094213;28;20181;-61
2024/01/06 09:54:00;;;;;;;32.00;18.90;;;4.00;99.90;;;;;;5094239;28;20266;-61
2024/01/06 09:56:27;;;;;;;34.77;18.33;;;3.90;99.90;;;;;;5093026;28;20235;-62
2024/01/06 09:58:54;;;;;;;30.83;17.83;;;4.00;99.90;;;;;;5094377;28;20177;-62
2024/01/06 10:01:20;;;;;;;34.77;19.43;;;4.00;99.90;;;;;;5094048;28;20169;-62
2024/01/06 10:03:46;;;;;;;32.33;17.37;;;4.00;99.90;;;;;;5093094;28;20209;-62
2024/01/06 10:06:13;;;;;;;31.73;18.40;;;4.00;99.90;;;;;;5093864;28;20684;-62
2024/01/06 10:08:42;;;;;;;33.73;19.20;;;3.90;99.90;;;;;;5093893;28;20180;-62
2024/01/06 10:11:10;;;;;;;30.27;17.97;;;3.90;99.90;;;;;;5094219;28;20547;-62
2024/01/06 10:13:39;;;;;;;28.50;17.77;;;4.00;99.90;;;;;;5093981;28;20296;-62
2024/01/06 10:16:06;;;;;;;30.83;18.40;;;4.00;99.90;;;;;;5094249;28;20181;-62
2024/01/06 10:18:34;;;;;;;31.13;17.77;;;4.00;99.90;;;;;;5093442;28;20645;-63
2024/01/06 10:21:02;;;;;;;30.73;18.57;;;4.10;99.90;;;;;;5093965;28;20219;-62
2024/01/06 10:23:29;;;;;;;28.73;16.70;;;4.00;99.90;;;;;;5093790;28;20260;-62
2024/01/06 10:25:55;;;;;;;23.87;15.90;;;4.00;99.90;;;;;;5093875;28;20735;-62
2024/01/06 10:28:25;;;;;;;33.83;18.87;;;4.00;99.90;;;;;;5093659;28;20231;-62
2024/01/06 10:30:55;;;;;;;31.17;18.53;;;3.90;99.90;;;;;;5093517;28;20211;-63
2024/01/06 10:33:22;;;;;;;31.23;18.77;;;3.90;99.90;;;;;;5093508;28;20302;-62
2024/01/06 10:35:52;;;;;;;28.37;17.87;;;3.80;99.90;;;;;;5093812;28;20173;-62
2024/01/06 10:38:18;;;;;;;31.63;19.33;;;3.80;99.90;;;;;;5093644;28;20181;-62
2024/01/06 10:40:59;;;;;;;31.30;19.73;;;3.80;99.90;;;;;;5093865;28;20187;-61
2024/01/06 10:43:29;;;;;;;35.63;18.73;;;3.90;99.90;;;;;;5075221;28;20280;-62
2024/01/06 10:45:59;;;;;;;30.90;18.63;;;3.80;99.90;;;;;;5093434;28;20181;-62
2024/01/06 10:48:26;;;;;;;31.27;18.40;;;3.80;99.90;;;;;;5093612;28;20165;-61
2024/01/06 10:50:53;;;;;;;30.23;17.77;;;3.90;99.90;;;;;;5094096;28;20188;-63
2024/01/06 10:53:20;;;;;;;37.30;19.47;;;3.90;99.90;;;;;;5093947;28;20533;-62
2024/01/06 10:55:48;;;;;;;34.50;18.80;;;3.90;99.90;;;;;;5093228;28;20200;-64
2024/01/06 10:58:16;;;;;;;31.03;17.23;;;3.90;99.90;;;;;;5092642;28;20223;-62
2024/01/06 11:00:42;;;;;;;31.23;17.17;;;3.90;99.90;;;;;;5093157;28;20174;-61
2024/01/06 11:03:09;;;;;;;28.97;16.60;;;3.90;99.90;;;;;;5093294;28;20185;-61
2024/01/06 11:05:36;;;;;;;31.97;16.97;;;4.00;99.90;;;;;;5093161;28;20182;-61
2024/01/06 11:08:04;;;;;;;31.90;17.57;;;4.00;99.90;;;;;;5096464;28;20596;-61
2024/01/06 11:10:31;;;;;;;27.53;16.40;;;4.00;99.90;;;;;;5097713;28;20196;-62
2024/01/06 11:13:14;;;;;;;26.93;16.60;;;3.90;99.90;;;;;;5096850;28;20209;-62
2024/01/06 11:15:49;;;;;;;25.97;15.70;;;3.90;99.90;;;;;;5097779;28;20181;-61
2024/01/06 11:18:34;;;;;;;30.10;16.47;;;3.90;99.90;;;;;;5097127;28;20203;-62
2024/01/06 11:21:21;;;;;;;27.97;16.53;;;3.80;99.90;;;;;;5096963;28;20270;-62
2024/01/06 11:24:22;;;;;;;33.43;17.80;;;3.80;99.90;;;;;;5097131;28;20165;-62
2024/01/06 11:26:57;;;;;;;34.30;16.80;;;3.80;99.90;;;;;;5096719;28;20213;-62
2024/01/06 11:29:23;;;;;;;36.47;17.73;;;3.70;99.90;;;;;;5078405;28;20663;-64
2024/01/06 11:32:24;;;;;;;30.00;16.07;;;3.70;99.90;;;;;;5096268;28;20653;-62
2024/01/06 11:34:56;;;;;;;34.07;18.47;;;3.70;99.90;;;;;;5096455;28;20276;-62
2024/01/06 11:37:36;;;;;;;39.10;19.57;;;3.70;99.90;;;;;;5096754;28;20259;-62
2024/01/06 11:40:02;;;;;;;41.13;19.37;;;3.70;99.90;;;;;;5096762;28;20158;-63
2024/01/06 11:42:35;;;;;;;41.53;21.37;;;3.70;99.90;;;;;;5096067;28;20213;-63
2024/01/06 11:45:07;;;;;;;40.90;19.60;;;3.70;99.90;;;;;;5096436;28;20272;-62
2024/01/06 11:47:34;;;;;;;36.53;19.73;;;3.60;99.90;;;;;;5096219;28;20227;-62
2024/01/06 11:50:04;;;;;;;40.60;20.00;;;3.60;99.90;;;;;;5095608;28;20218;-62
2024/01/06 11:52:33;;;;;;;41.07;22.03;;;3.60;99.90;;;;;;5095978;28;20197;-63
2024/01/06 11:55:00;;;;;;;38.90;20.47;;;3.60;99.90;;;;;;5096101;28;20185;-61
2024/01/06 11:57:27;;;;;;;40.97;19.87;;;3.60;99.90;;;;;;5096076;28;20225;-62
2024/01/06 11:59:53;;;;;;;39.50;20.20;;;3.60;99.90;;;;;;5096049;28;20227;-62
2024/01/06 12:02:19;;;;;;;38.17;19.67;;;3.70;99.90;;;;;;5096562;28;20181;-62
2024/01/06 12:04:52;;;;;;;39.47;20.43;;;3.60;99.90;;;;;;5096084;28;20185;-62
2024/01/06 12:07:20;;;;;;;33.13;18.90;;;3.60;99.90;;;;;;5095796;28;20579;-62
2024/01/06 12:09:49;;;;;;;40.03;21.53;;;3.60;99.90;;;;;;5095584;28;20559;-62
2024/01/06 12:12:18;;;;;;;39.37;20.33;;;3.50;99.90;;;;;;5096356;28;20258;-62
2024/01/06 12:14:45;;;;;;;39.07;21.73;;;3.50;99.90;;;;;;5095904;28;20177;-62
2024/01/06 12:17:13;;;;;;;41.20;20.77;;;3.50;99.90;;;;;;5096190;28;20197;-62
2024/01/06 12:19:43;;;;;;;38.67;20.97;;;3.50;99.90;;;;;;5094961;28;20189;-63
2024/01/06 12:22:16;;;;;;;44.67;22.53;;;3.50;99.90;;;;;;5095479;28;20276;-62
2024/01/06 12:24:42;;;;;;;42.33;23.07;;;3.50;99.90;;;;;;5096180;28;20197;-63
2024/01/06 12:27:11;;;;;;;44.73;22.60;;;3.50;99.90;;;;;;5096482;28;20209;-63
2024/01/06 12:29:43;;;;;;;45.53;23.17;;;3.50;99.90;;;;;;5095592;28;20657;-63
2024/01/06 12:32:10;;;;;;;38.57;21.40;;;3.50;99.90;;;;;;5077353;28;20231;-63
2024/01/06 12:34:36;;;;;;;38.90;21.00;;;3.50;99.90;;;;;;5095288;28;20288;-62